createdAt,value
2019-03-30T00:00:38.945Z,70.60
2019-03-30T00:03:07.491Z,70.50
2019-03-30T00:05:36.079Z,70.70
2019-03-30T00:08:04.698Z,70.50
2019-03-30T00:10:33.246Z,70.70
2019-03-30T00:13:01.864Z,70.50
2019-03-30T00:15:30.422Z,70.10
2019-03-30T00:17:58.965Z,70.90
2019-03-30T00:20:27.539Z,70.90
2019-03-30T00:22:56.160Z,71.50
2019-03-30T00:25:24.770Z,71.00
2019-03-30T00:27:53.390Z,71.00
2019-03-30T00:30:22.186Z,70.40
2019-03-30T00:32:50.727Z,70.00
2019-03-30T00:35:19.239Z,70.00
2019-03-30T00:37:47.754Z,70.30
2019-03-30T00:40:16.264Z,70.50
2019-03-30T00:42:44.775Z,70.70
2019-03-30T00:45:13.277Z,70.80
2019-03-30T00:47:41.726Z,70.60
2019-03-30T00:50:10.529Z,71.00
2019-03-30T00:52:38.983Z,71.20
2019-03-30T00:55:09.110Z,70.40
2019-03-30T00:57:37.640Z,70.60
2019-03-30T01:00:07.944Z,70.60
2019-03-30T01:02:36.525Z,70.90
2019-03-30T01:05:06.933Z,71.70
2019-03-30T01:07:35.485Z,71.60
2019-03-30T01:10:05.892Z,71.60
2019-03-30T01:12:34.445Z,71.90
2019-03-30T01:15:04.195Z,72.20
2019-03-30T01:17:32.731Z,71.10
2019-03-30T01:20:03.115Z,71.20
2019-03-30T01:22:31.521Z,71.00
2019-03-30T01:24:59.975Z,71.80
2019-03-30T01:27:28.695Z,71.70
2019-03-30T01:29:57.159Z,71.50
2019-03-30T01:32:25.811Z,70.90
2019-03-30T01:34:54.334Z,71.90
2019-03-30T01:37:22.822Z,71.30
2019-03-30T01:39:51.518Z,70.90
2019-03-30T01:42:20.047Z,71.70
2019-03-30T01:44:48.504Z,71.30
2019-03-30T01:47:17.059Z,72.30
2019-03-30T01:49:45.586Z,71.50
2019-03-30T01:52:14.110Z,71.70
2019-03-30T01:54:42.599Z,72.00
2019-03-30T01:57:11.146Z,72.60
2019-03-30T01:59:39.618Z,72.90
2019-03-30T02:02:08.132Z,73.30
2019-03-30T02:04:36.703Z,73.70
2019-03-30T02:07:05.248Z,73.70
2019-03-30T02:09:33.866Z,73.50
2019-03-30T02:12:02.736Z,76.10
2019-03-30T02:14:31.491Z,76.10
2019-03-30T02:16:59.931Z,75.90
2019-03-30T02:19:28.548Z,76.00
2019-03-30T02:21:57.075Z,76.50
2019-03-30T02:24:25.544Z,75.90
2019-03-30T02:26:53.978Z,78.00
2019-03-30T02:29:24.060Z,77.80
2019-03-30T02:31:52.661Z,78.60
2019-03-30T02:34:21.156Z,79.30
2019-03-30T02:36:49.601Z,78.20
2019-03-30T02:39:18.371Z,80.00
2019-03-30T02:41:46.960Z,78.90
2019-03-30T02:44:15.466Z,77.90
2019-03-30T02:46:43.906Z,78.10
2019-03-30T02:49:12.439Z,77.60
2019-03-30T02:51:40.903Z,77.00
2019-03-30T02:54:09.384Z,77.00
2019-03-30T02:56:37.988Z,77.00
2019-03-30T02:59:06.516Z,76.50
2019-03-30T03:01:35.042Z,77.10
2019-03-30T03:04:03.508Z,76.40
2019-03-30T03:06:31.966Z,76.20
2019-03-30T03:09:00.556Z,75.70
2019-03-30T03:11:29.027Z,76.00
2019-03-30T03:13:57.468Z,75.30
2019-03-30T03:16:27.577Z,76.50
2019-03-30T03:18:56.282Z,76.40
2019-03-30T03:21:24.742Z,76.30
2019-03-30T03:23:57.450Z,76.10
2019-03-30T03:26:26.009Z,77.10
2019-03-30T03:28:54.430Z,77.50
2019-03-30T03:31:23.091Z,77.70
2019-03-30T03:33:51.896Z,77.60
2019-03-30T03:36:20.747Z,77.90
2019-03-30T03:38:49.373Z,77.90
2019-03-30T03:41:17.958Z,76.90
2019-03-30T03:43:46.480Z,76.50
2019-03-30T03:46:15.007Z,76.70
2019-03-30T03:48:43.459Z,77.10
2019-03-30T03:51:25.623Z,77.60
2019-03-30T03:53:43.388Z,76.90
2019-03-30T03:56:13.992Z,78.70
2019-03-30T03:58:45.131Z,77.00
2019-03-30T04:01:15.532Z,77.30
2019-03-30T04:03:45.691Z,77.90
2019-03-30T04:06:16.141Z,78.20
2019-03-30T04:08:47.796Z,77.10
2019-03-30T04:11:17.119Z,76.70
2019-03-30T04:13:49.143Z,76.90
2019-03-30T04:16:17.633Z,76.80
2019-03-30T04:18:48.286Z,75.40
2019-03-30T04:21:16.366Z,75.20
2019-03-30T04:23:44.832Z,76.70
2019-03-30T04:26:13.284Z,76.80
2019-03-30T04:28:41.808Z,76.80
2019-03-30T04:31:10.352Z,78.10
2019-03-30T04:33:38.847Z,78.90
2019-03-30T04:36:07.358Z,79.90
2019-03-30T04:38:35.968Z,79.30
2019-03-30T04:41:04.550Z,79.50
2019-03-30T04:43:33.025Z,79.90
2019-03-30T04:46:01.548Z,80.40
2019-03-30T04:48:30.043Z,80.30
2019-03-30T04:50:58.490Z,80.70
2019-03-30T04:53:27.052Z,79.80
2019-03-30T04:55:55.518Z,80.90
2019-03-30T04:58:24.016Z,81.00
2019-03-30T05:00:52.679Z,80.50
2019-03-30T05:03:21.150Z,81.30
2019-03-30T05:05:49.618Z,80.60
2019-03-30T05:08:18.172Z,79.30
2019-03-30T05:10:46.693Z,79.00
2019-03-30T05:13:15.169Z,80.40
2019-03-30T05:15:43.610Z,79.10
2019-03-30T05:18:12.101Z,78.60
2019-03-30T05:20:40.616Z,77.90
2019-03-30T05:23:09.065Z,78.40
2019-03-30T05:25:37.798Z,77.50
2019-03-30T05:28:06.342Z,78.30
2019-03-30T05:30:34.948Z,78.30
2019-03-30T05:33:05.914Z,78.40
2019-03-30T05:35:33.943Z,78.20
2019-03-30T05:38:02.526Z,77.70
2019-03-30T05:40:31.322Z,78.20
2019-03-30T05:42:59.766Z,78.00
2019-03-30T05:45:28.243Z,78.70
2019-03-30T05:47:56.975Z,78.10
2019-03-30T05:50:25.527Z,77.90
2019-03-30T05:52:53.971Z,77.10
2019-03-30T05:58:12.710Z,77.20
2019-03-30T06:00:41.188Z,77.30
2019-03-30T06:03:09.785Z,77.30
2019-03-30T06:05:38.328Z,77.10
2019-03-30T06:08:06.815Z,76.80
2019-03-30T06:10:38.636Z,76.40
2019-03-30T06:13:05.816Z,75.30
2019-03-30T06:15:34.454Z,75.00
2019-03-30T06:18:03.280Z,75.40
2019-03-30T06:20:31.811Z,75.20
2019-03-30T06:23:00.356Z,74.90
2019-03-30T06:25:28.933Z,74.60
2019-03-30T06:27:57.456Z,74.60
2019-03-30T06:30:27.632Z,74.20
2019-03-30T06:32:56.082Z,74.00
2019-03-30T06:35:24.710Z,74.10
2019-03-30T06:37:56.365Z,74.20
2019-03-30T06:40:24.886Z,74.10
2019-03-30T06:42:53.417Z,74.10
2019-03-30T06:45:22.085Z,73.90
2019-03-30T06:47:50.570Z,73.70
2019-03-30T06:50:19.232Z,73.60
2019-03-30T06:52:57.530Z,73.50
2019-03-30T06:55:17.955Z,73.40
2019-03-30T06:57:46.442Z,73.30
2019-03-30T07:00:16.526Z,73.50
2019-03-30T07:02:45.484Z,73.60
2019-03-30T07:05:14.072Z,73.70
2019-03-30T07:07:44.946Z,73.90
2019-03-30T07:10:14.138Z,74.00
2019-03-30T07:12:42.746Z,73.50
2019-03-30T07:15:11.966Z,73.20
2019-03-30T07:17:46.339Z,73.10
2019-03-30T07:20:26.249Z,72.90
2019-03-30T07:22:55.163Z,72.60
2019-03-30T07:25:23.925Z,72.50
2019-03-30T07:27:52.781Z,72.20
2019-03-30T07:30:21.523Z,72.20
2019-03-30T07:32:50.044Z,72.40
2019-03-30T07:35:18.644Z,72.40
2019-03-30T07:37:47.316Z,72.00
2019-03-30T07:40:15.878Z,71.40
2019-03-30T07:42:44.441Z,71.10
2019-03-30T07:45:13.204Z,70.60
2019-03-30T07:47:41.856Z,70.50
2019-03-30T07:50:10.639Z,69.60
2019-03-30T07:52:39.103Z,69.20
2019-03-30T07:55:07.800Z,69.80
2019-03-30T07:57:36.541Z,67.80
2019-03-30T08:00:09.157Z,68.40
2019-03-30T08:02:37.625Z,66.00
2019-03-30T08:05:07.862Z,65.30
2019-03-30T08:07:36.316Z,65.20
2019-03-30T08:10:06.127Z,64.80
2019-03-30T08:12:34.591Z,63.40
2019-03-30T08:15:04.278Z,63.20
2019-03-30T08:17:32.890Z,62.30
2019-03-30T08:20:01.349Z,61.20
2019-03-30T08:22:29.856Z,61.60
2019-03-30T08:24:58.331Z,60.60
2019-03-30T08:27:26.864Z,60.00
2019-03-30T08:29:55.420Z,59.40
2019-03-30T08:32:23.948Z,59.90
2019-03-30T08:34:52.517Z,59.30
2019-03-30T08:37:21.178Z,59.30
2019-03-30T08:39:49.927Z,58.70
2019-03-30T08:42:19.370Z,58.50
2019-03-30T08:44:48.162Z,58.00
2019-03-30T08:47:16.819Z,57.80
2019-03-30T08:49:45.443Z,57.10
2019-03-30T08:52:13.947Z,56.80
2019-03-30T08:54:42.479Z,56.60
2019-03-30T08:57:10.958Z,56.80
2019-03-30T08:59:39.923Z,56.40
2019-03-30T09:02:08.426Z,55.10
2019-03-30T09:04:36.894Z,55.60
2019-03-30T09:07:05.552Z,54.20
2019-03-30T09:09:34.159Z,54.00
2019-03-30T09:12:02.646Z,53.40
2019-03-30T09:14:31.147Z,53.00
2019-03-30T09:16:59.840Z,53.60
2019-03-30T09:19:28.292Z,53.20
2019-03-30T09:21:56.838Z,52.80
2019-03-30T09:24:25.432Z,52.40
2019-03-30T09:26:54.994Z,52.10
2019-03-30T09:29:24.843Z,51.50
2019-03-30T09:31:53.418Z,51.50
2019-03-30T09:34:22.216Z,51.10
2019-03-30T09:36:50.868Z,50.40
2019-03-30T09:39:19.489Z,50.10
2019-03-30T09:41:48.141Z,50.00
2019-03-30T09:44:16.626Z,50.00
2019-03-30T09:46:45.274Z,49.90
2019-03-30T09:49:13.869Z,49.30
2019-03-30T09:51:42.345Z,49.50
2019-03-30T09:54:23.065Z,48.80
2019-03-30T09:56:41.094Z,48.80
2019-03-30T09:59:09.749Z,49.30
2019-03-30T10:01:38.279Z,48.80
2019-03-30T10:04:06.829Z,48.20
2019-03-30T10:06:35.484Z,48.00
2019-03-30T10:09:05.668Z,47.10
2019-03-30T10:11:34.199Z,47.40
2019-03-30T10:14:02.765Z,47.10
2019-03-30T10:16:31.293Z,46.90
2019-03-30T10:18:59.851Z,47.10
2019-03-30T10:21:28.330Z,46.10
2019-03-30T10:23:57.093Z,46.00
2019-03-30T10:26:25.971Z,45.00
2019-03-30T10:28:54.531Z,44.50
2019-03-30T10:31:23.003Z,43.80
2019-03-30T10:33:51.743Z,43.00
2019-03-30T10:36:20.277Z,42.50
2019-03-30T10:38:48.747Z,42.80
2019-03-30T10:41:17.413Z,42.90
2019-03-30T10:43:46.030Z,42.50
2019-03-30T10:46:14.483Z,43.30
2019-03-30T10:48:43.034Z,41.60
2019-03-30T10:51:11.654Z,41.10
2019-03-30T10:53:40.209Z,41.50
2019-03-30T10:56:08.736Z,41.20
2019-03-30T10:58:38.240Z,42.50
2019-03-30T11:01:06.786Z,41.50
2019-03-30T11:03:36.844Z,39.60
2019-03-30T11:06:05.419Z,39.80
2019-03-30T11:08:33.993Z,40.70
2019-03-30T11:11:02.644Z,39.80
2019-03-30T11:13:31.127Z,39.70
2019-03-30T11:15:59.834Z,39.20
2019-03-30T11:18:28.361Z,38.10
2019-03-30T11:20:56.893Z,36.00
2019-03-30T11:23:25.348Z,37.40
2019-03-30T11:25:53.936Z,36.90
2019-03-30T11:28:22.397Z,36.40
2019-03-30T11:30:50.902Z,36.10
2019-03-30T11:33:20.763Z,36.40
2019-03-30T11:35:49.652Z,35.30
2019-03-30T11:38:18.178Z,35.60
2019-03-30T11:40:46.682Z,36.00
2019-03-30T11:43:15.154Z,33.70
2019-03-30T11:45:43.724Z,33.60
2019-03-30T11:48:12.276Z,34.80
2019-03-30T11:50:40.770Z,34.30
2019-03-30T11:53:09.222Z,33.30
2019-03-30T11:55:37.777Z,33.40
2019-03-30T11:58:06.270Z,33.60
2019-03-30T12:00:35.024Z,33.80
2019-03-30T12:03:03.634Z,33.10
2019-03-30T12:05:32.257Z,32.00
2019-03-30T12:08:00.790Z,31.60
2019-03-30T12:10:29.390Z,32.80
2019-03-30T12:12:58.052Z,31.80
2019-03-30T12:15:26.584Z,31.50
2019-03-30T12:17:55.154Z,32.20
2019-03-30T12:20:23.818Z,32.00
2019-03-30T12:22:52.513Z,31.20
2019-03-30T12:25:34.534Z,31.50
2019-03-30T12:27:51.237Z,30.90
2019-03-30T12:30:19.859Z,31.10
2019-03-30T12:32:48.441Z,30.70
2019-03-30T12:35:17.037Z,31.00
2019-03-30T12:37:45.534Z,31.00
2019-03-30T12:40:15.629Z,31.00
2019-03-30T12:42:44.279Z,31.00
2019-03-30T12:45:14.883Z,29.70
2019-03-30T12:47:43.600Z,30.10
2019-03-30T12:50:12.278Z,29.10
2019-03-30T12:52:40.781Z,29.20
2019-03-30T12:55:09.458Z,28.30
2019-03-30T12:57:37.966Z,28.20
2019-03-30T13:00:07.529Z,28.70
2019-03-30T13:02:36.175Z,28.20
2019-03-30T13:05:07.456Z,28.20
2019-03-30T13:07:36.234Z,27.20
2019-03-30T13:10:06.691Z,27.10
2019-03-30T13:12:35.257Z,27.60
2019-03-30T13:15:05.050Z,26.80
2019-03-30T13:17:33.596Z,27.80
2019-03-30T13:20:02.655Z,28.20
2019-03-30T13:22:31.087Z,26.20
2019-03-30T13:24:59.756Z,26.80
2019-03-30T13:27:28.274Z,27.40
2019-03-30T13:29:56.765Z,25.10
2019-03-30T13:32:25.215Z,24.70
2019-03-30T13:34:53.776Z,23.80
2019-03-30T13:37:22.364Z,24.60
2019-03-30T13:39:50.864Z,24.90
2019-03-30T13:42:19.369Z,23.80
2019-03-30T13:44:47.994Z,23.30
2019-03-30T13:47:16.506Z,23.70
2019-03-30T13:49:45.023Z,24.20
2019-03-30T13:52:13.590Z,24.30
2019-03-30T13:54:42.062Z,24.50
2019-03-30T13:57:10.542Z,24.60
2019-03-30T13:59:39.089Z,24.40
2019-03-30T14:02:07.682Z,24.30
2019-03-30T14:04:36.197Z,24.70
2019-03-30T14:07:04.774Z,24.60
2019-03-30T14:09:33.655Z,24.50
2019-03-30T14:12:02.350Z,25.10
2019-03-30T14:14:38.471Z,24.90
2019-03-30T14:17:07.111Z,25.00
2019-03-30T14:19:35.682Z,25.20
2019-03-30T14:22:04.459Z,25.40
2019-03-30T14:24:33.087Z,25.40
2019-03-30T14:27:01.643Z,25.40
2019-03-30T14:29:30.231Z,26.10
2019-03-30T14:31:58.792Z,25.30
2019-03-30T14:34:27.223Z,25.40
2019-03-30T14:36:55.785Z,25.30
2019-03-30T14:39:24.599Z,25.80
2019-03-30T14:41:53.067Z,25.10
2019-03-30T14:44:21.596Z,25.00
2019-03-30T14:46:50.541Z,24.60
2019-03-30T14:49:21.118Z,24.00
2019-03-30T14:51:49.782Z,24.40
2019-03-30T14:54:18.325Z,24.40
2019-03-30T14:56:46.962Z,25.00
2019-03-30T14:59:15.496Z,24.90
2019-03-30T15:01:44.831Z,24.50
2019-03-30T15:04:13.524Z,24.60
2019-03-30T15:06:41.963Z,24.80
2019-03-30T15:09:10.653Z,25.70
2019-03-30T15:11:39.167Z,24.90
2019-03-30T15:14:07.731Z,25.00
2019-03-30T15:16:36.265Z,25.50
2019-03-30T15:19:04.866Z,25.30
2019-03-30T15:21:33.332Z,25.40
2019-03-30T15:24:01.894Z,25.40
2019-03-30T15:26:30.372Z,25.30
2019-03-30T15:28:58.932Z,25.00
2019-03-30T15:31:27.384Z,25.00
2019-03-30T15:33:56.014Z,25.10
2019-03-30T15:36:24.623Z,25.40
2019-03-30T15:38:53.172Z,25.20
2019-03-30T15:41:21.627Z,25.30
2019-03-30T15:43:51.977Z,25.60
2019-03-30T15:46:20.426Z,25.70
2019-03-30T15:48:48.914Z,25.70
2019-03-30T15:51:17.421Z,26.00
2019-03-30T15:53:45.967Z,26.30
2019-03-30T15:56:14.604Z,25.90
2019-03-30T15:58:43.236Z,26.10
2019-03-30T16:01:11.683Z,26.70
2019-03-30T16:03:40.313Z,26.70
2019-03-30T16:06:08.913Z,26.20
2019-03-30T16:08:37.524Z,27.00
2019-03-30T16:11:06.159Z,27.10
2019-03-30T16:13:34.790Z,27.20
2019-03-30T16:16:03.348Z,26.30
2019-03-30T16:18:31.803Z,26.50
2019-03-30T16:21:00.455Z,26.50
2019-03-30T16:23:29.040Z,26.20
2019-03-30T16:25:57.525Z,26.30
2019-03-30T16:28:26.187Z,26.30
2019-03-30T16:30:56.561Z,25.80
2019-03-30T16:33:25.005Z,26.40
2019-03-30T16:35:53.649Z,26.50
2019-03-30T16:38:22.276Z,26.80
2019-03-30T16:40:50.785Z,26.80
2019-03-30T16:43:19.255Z,26.70
2019-03-30T16:45:47.746Z,26.70
2019-03-30T16:48:16.360Z,27.00
2019-03-30T16:50:45.035Z,26.10
2019-03-30T16:53:13.517Z,26.40
2019-03-30T16:55:42.092Z,26.20
2019-03-30T16:58:10.553Z,26.40
2019-03-30T17:00:39.073Z,26.40
2019-03-30T17:03:07.561Z,26.80
2019-03-30T17:05:36.066Z,27.10
2019-03-30T17:08:04.615Z,27.20
2019-03-30T17:10:33.189Z,26.90
2019-03-30T17:13:01.844Z,27.30
2019-03-30T17:15:30.357Z,27.00
2019-03-30T17:17:58.980Z,27.00
2019-03-30T17:20:27.513Z,26.70
2019-03-30T17:22:58.710Z,26.90
2019-03-30T17:25:26.220Z,26.90
2019-03-30T17:27:58.680Z,27.00
2019-03-30T17:30:25.235Z,26.90
2019-03-30T17:32:53.705Z,27.10
2019-03-30T17:35:22.564Z,27.20
2019-03-30T17:37:51.183Z,27.40
2019-03-30T17:40:19.692Z,27.60
2019-03-30T17:42:48.302Z,27.70
2019-03-30T17:45:16.893Z,27.80
2019-03-30T17:47:45.360Z,27.80
2019-03-30T17:50:15.254Z,28.20
2019-03-30T17:52:43.910Z,28.20
2019-03-30T17:55:14.426Z,28.20
2019-03-30T17:57:43.087Z,28.40
2019-03-30T18:00:16.968Z,28.60
2019-03-30T18:02:45.455Z,28.70
2019-03-30T18:05:14.177Z,28.90
2019-03-30T18:07:42.702Z,29.20
2019-03-30T18:10:12.074Z,29.30
2019-03-30T18:12:40.519Z,29.30
2019-03-30T18:15:09.618Z,29.60
2019-03-30T18:17:38.576Z,30.20
2019-03-30T18:20:08.007Z,31.20
2019-03-30T18:22:36.457Z,30.90
2019-03-30T18:25:06.453Z,30.70
2019-03-30T18:27:34.911Z,31.40
2019-03-30T18:30:09.292Z,32.30
2019-03-30T18:32:37.951Z,32.70
2019-03-30T18:35:07.273Z,32.90
2019-03-30T18:37:36.299Z,32.80
2019-03-30T18:40:06.437Z,32.70
2019-03-30T18:42:35.239Z,31.90
2019-03-30T18:45:07.312Z,31.50
2019-03-30T18:47:36.247Z,31.40
2019-03-30T18:50:07.048Z,31.30
2019-03-30T18:52:36.547Z,31.40
2019-03-30T18:55:06.852Z,31.70
2019-03-30T18:57:35.396Z,33.40
2019-03-30T19:00:06.408Z,33.80
2019-03-30T19:02:34.214Z,34.00
2019-03-30T19:05:02.765Z,35.40
2019-03-30T19:07:31.216Z,38.50
2019-03-30T19:09:59.742Z,39.40
2019-03-30T19:12:28.276Z,38.70
2019-03-30T19:14:56.736Z,38.40
2019-03-30T19:17:25.208Z,38.70
2019-03-30T19:19:53.715Z,39.20
2019-03-30T19:22:22.304Z,38.60
2019-03-30T19:24:50.758Z,38.60
2019-03-30T19:27:20.496Z,38.10
2019-03-30T19:29:49.020Z,38.10
2019-03-30T19:32:17.724Z,38.10
2019-03-30T19:34:46.236Z,38.10
2019-03-30T19:37:14.800Z,37.80
2019-03-30T19:39:43.294Z,38.70
2019-03-30T19:42:11.753Z,38.00
2019-03-30T19:44:40.221Z,38.00
2019-03-30T19:47:08.775Z,38.40
2019-03-30T19:49:37.226Z,39.80
2019-03-30T19:52:05.987Z,40.30
2019-03-30T19:54:34.572Z,40.90
2019-03-30T19:57:03.306Z,41.70
2019-03-30T19:59:31.862Z,42.80
2019-03-30T20:02:02.249Z,44.40
2019-03-30T20:04:30.759Z,44.30
2019-03-30T20:06:59.458Z,44.60
2019-03-30T20:09:27.913Z,45.20
2019-03-30T20:11:56.406Z,45.90
2019-03-30T20:14:24.962Z,46.20
2019-03-30T20:16:53.508Z,46.60
2019-03-30T20:19:22.080Z,47.50
2019-03-30T20:21:50.711Z,47.60
2019-03-30T20:24:19.318Z,47.40
2019-03-30T20:26:47.788Z,48.00
2019-03-30T20:29:25.360Z,48.00
2019-03-30T20:31:46.666Z,48.00
2019-03-30T20:34:15.300Z,47.70
2019-03-30T20:36:43.832Z,47.90
2019-03-30T20:39:13.017Z,47.50
2019-03-30T20:41:41.500Z,47.50
2019-03-30T20:44:10.127Z,47.30
2019-03-30T20:46:38.648Z,47.90
2019-03-30T20:49:07.294Z,47.70
2019-03-30T20:51:35.835Z,47.70
2019-03-30T20:54:04.401Z,47.60
2019-03-30T20:56:33.150Z,47.90
2019-03-30T20:59:01.641Z,47.80
2019-03-30T21:01:30.099Z,48.10
2019-03-30T21:03:58.757Z,47.90
2019-03-30T21:06:27.485Z,48.20
2019-03-30T21:08:56.018Z,48.10
2019-03-30T21:11:24.538Z,47.70
2019-03-30T21:13:56.559Z,48.00
2019-03-30T21:16:23.647Z,48.60
2019-03-30T21:18:52.151Z,48.70
2019-03-30T21:21:20.756Z,49.10
2019-03-30T21:23:49.352Z,49.70
2019-03-30T21:26:17.875Z,50.00
2019-03-30T21:28:46.477Z,49.40
2019-03-30T21:31:15.271Z,49.70
2019-03-30T21:33:43.877Z,50.00
2019-03-30T21:36:12.446Z,50.10
2019-03-30T21:38:41.116Z,50.70
2019-03-30T21:41:09.609Z,50.80
2019-03-30T21:43:38.087Z,51.50
2019-03-30T21:46:06.710Z,51.70
2019-03-30T21:48:35.318Z,51.90
2019-03-30T21:51:03.773Z,51.70
2019-03-30T21:53:32.215Z,51.80
2019-03-30T21:56:00.865Z,51.50
2019-03-30T21:58:29.399Z,52.00
2019-03-30T22:00:59.927Z,51.90
2019-03-30T22:03:28.113Z,52.10
2019-03-30T22:05:56.945Z,52.10
2019-03-30T22:08:25.384Z,52.10
2019-03-30T22:10:53.863Z,52.50
2019-03-30T22:13:22.400Z,52.90
2019-03-30T22:15:50.911Z,52.90
2019-03-30T22:18:19.374Z,52.60
2019-03-30T22:20:47.875Z,52.20
2019-03-30T22:23:16.351Z,52.20
2019-03-30T22:25:44.878Z,52.30
2019-03-30T22:28:13.418Z,52.10
2019-03-30T22:30:41.869Z,52.30
2019-03-30T22:33:10.346Z,52.10
2019-03-30T22:35:38.869Z,52.70
2019-03-30T22:38:07.339Z,52.70
2019-03-30T22:40:35.767Z,52.70
2019-03-30T22:43:04.388Z,52.70
2019-03-30T22:45:32.864Z,53.30
2019-03-30T22:48:01.351Z,53.30
2019-03-30T22:50:29.876Z,53.00
2019-03-30T22:52:58.351Z,55.00
2019-03-30T22:55:26.817Z,57.70
2019-03-30T22:57:55.290Z,54.70
2019-03-30T23:00:38.955Z,54.80
2019-03-30T23:03:08.455Z,55.70
2019-03-30T23:05:37.110Z,55.40
2019-03-30T23:08:05.760Z,55.80
2019-03-30T23:10:34.594Z,55.90
2019-03-30T23:13:03.558Z,55.90
2019-03-30T23:15:33.807Z,57.00
2019-03-30T23:18:02.613Z,57.90
2019-03-30T23:20:31.155Z,57.20
2019-03-30T23:22:59.783Z,57.10
2019-03-30T23:25:28.347Z,57.60
2019-03-30T23:27:56.853Z,57.30
2019-03-30T23:30:25.631Z,57.20
2019-03-30T23:32:54.299Z,56.80
2019-03-30T23:35:22.906Z,56.80
2019-03-30T23:37:51.984Z,57.10
2019-03-30T23:40:20.662Z,56.10
2019-03-30T23:42:49.195Z,56.70
2019-03-30T23:45:18.037Z,56.60
2019-03-30T23:47:46.632Z,56.70
2019-03-30T23:50:15.420Z,57.20
2019-03-30T23:52:43.951Z,57.40
2019-03-30T23:55:14.144Z,57.90
2019-03-30T23:57:42.659Z,58.20
